Time;durP1;ratioP1;P1;durP2;ratioP2;P2;SDS_P1;SDS_P2;PMS_P1;PMS_P2;Temp;Humidity;BMP_temperature;BMP_pressure;BME280_temperature;BME280_humidity;BME280_pressure;Samples;Min_cycle;Max_cycle;Signal;HPM_P1;HPM_P2
2023/02/06 00:00:45;;;;;;;6.80;2.47;;;8.70;1.00;;;;;;5033395;28;20026;-49
2023/02/06 00:03:10;;;;;;;6.07;2.93;;;8.60;1.00;;;;;;5033397;28;20064;-50
2023/02/06 00:05:36;;;;;;;5.37;2.43;;;8.70;1.00;;;;;;5031728;28;20045;-53
2023/02/06 00:08:02;;;;;;;7.03;2.80;;;8.70;1.00;;;;;;5033805;28;20447;-54
2023/02/06 00:10:27;;;;;;;5.30;2.50;;;8.60;1.00;;;;;;5033223;28;20131;-51
2023/02/06 00:12:53;;;;;;;11.87;3.20;;;8.70;1.00;;;;;;5033307;28;20034;-48
2023/02/06 00:15:19;;;;;;;5.50;2.00;;;8.60;1.00;;;;;;5033126;28;20226;-51
2023/02/06 00:17:45;;;;;;;4.40;2.17;;;8.80;1.00;;;;;;5030130;28;20139;-51
2023/02/06 00:20:12;;;;;;;5.60;2.30;;;8.70;1.00;;;;;;5033693;28;20061;-52
2023/02/06 00:22:37;;;;;;;8.27;2.90;;;8.60;1.00;;;;;;5033628;28;20026;-49
2023/02/06 00:25:06;;;;;;;3.97;2.37;;;8.60;1.00;;;;;;5032925;28;20022;-50
2023/02/06 00:27:32;;;;;;;4.30;2.43;;;8.60;1.00;;;;;;5033536;28;20033;-53
2023/02/06 00:29:57;;;;;;;6.50;2.20;;;8.80;1.00;;;;;;5033145;28;20030;-50
2023/02/06 00:32:23;;;;;;;6.90;2.60;;;8.80;1.00;;;;;;5031412;28;20395;-48
2023/02/06 00:34:48;;;;;;;6.90;2.97;;;8.80;1.00;;;;;;5032937;28;20033;-49
2023/02/06 00:37:16;;;;;;;4.83;2.60;;;8.70;1.00;;;;;;5044027;28;20033;-52
2023/02/06 00:39:42;;;;;;;4.77;2.40;;;8.80;1.00;;;;;;5033346;28;20537;-50
2023/02/06 00:42:07;;;;;;;7.90;2.30;;;8.80;1.00;;;;;;5033106;28;20025;-53
2023/02/06 00:44:33;;;;;;;5.50;2.37;;;8.70;1.00;;;;;;5032653;28;20033;-52
2023/02/06 00:46:58;;;;;;;6.53;2.47;;;8.80;1.00;;;;;;5030711;28;20380;-49
2023/02/06 00:49:24;;;;;;;5.03;2.30;;;8.80;1.00;;;;;;5032734;28;20063;-51
2023/02/06 00:51:50;;;;;;;6.03;2.30;;;8.70;1.00;;;;;;5032360;28;20036;-49
2023/02/06 00:54:15;;;;;;;6.13;2.83;;;8.40;1.00;;;;;;5023033;28;20026;-50
2023/02/06 00:56:41;;;;;;;4.00;2.47;;;8.70;1.00;;;;;;5030393;28;20083;-51
2023/02/06 00:59:07;;;;;;;4.70;2.27;;;8.70;1.00;;;;;;5032976;28;20064;-54
2023/02/06 01:01:33;;;;;;;6.17;1.87;;;8.70;1.00;;;;;;5032110;28;20403;-48
2023/02/06 01:03:58;;;;;;;6.10;2.27;;;8.60;1.00;;;;;;5031939;28;20052;-49
2023/02/06 01:06:24;;;;;;;2.90;2.20;;;8.60;1.00;;;;;;5032068;28;20041;-47
2023/02/06 01:08:50;;;;;;;5.20;1.83;;;8.40;1.00;;;;;;5031855;28;20470;-49
2023/02/06 01:11:22;;;;;;;8.17;2.93;;;8.50;1.00;;;;;;5032741;28;20033;-47
2023/02/06 01:13:48;;;;;;;10.00;3.37;;;8.50;1.00;;;;;;5032240;28;20026;-50
2023/02/06 01:16:16;;;;;;;5.87;2.20;;;8.60;1.00;;;;;;5032446;28;20117;-48
2023/02/06 01:18:42;;;;;;;7.50;2.27;;;8.70;1.00;;;;;;5032052;28;20041;-49
2023/02/06 01:21:09;;;;;;;3.07;2.23;;;8.60;1.00;;;;;;5031985;28;20029;-48
2023/02/06 01:23:35;;;;;;;8.37;2.10;;;8.70;1.00;;;;;;5031890;28;20040;-48
2023/02/06 01:26:27;;;;;;;3.33;2.30;;;8.60;1.00;;;;;;5031192;28;20045;-48
2023/02/06 01:28:54;;;;;;;5.00;2.43;;;8.70;1.00;;;;;;5030209;28;20040;-47
2023/02/06 01:31:26;;;;;;;8.83;2.70;;;8.70;1.00;;;;;;5032127;28;20091;-51
2023/02/06 01:33:51;;;;;;;3.80;2.23;;;8.50;1.00;;;;;;5031692;28;20028;-49
2023/02/06 01:36:18;;;;;;;6.10;2.97;;;8.70;1.00;;;;;;5034703;28;20103;-53
2023/02/06 01:38:45;;;;;;;6.87;2.50;;;8.60;1.00;;;;;;5042716;28;20030;-54
2023/02/06 01:41:11;;;;;;;3.77;2.30;;;8.50;1.00;;;;;;5031611;28;20030;-53
2023/02/06 01:43:46;;;;;;;6.03;2.50;;;8.50;1.00;;;;;;5031925;28;20037;-52
2023/02/06 01:46:12;;;;;;;7.68;2.40;;;8.40;1.00;;;;;;5031941;28;20112;-54
2023/02/06 01:48:40;;;;;;;6.83;2.20;;;8.50;1.00;;;;;;5031864;28;20014;-52
2023/02/06 01:51:11;;;;;;;2.97;1.90;;;8.60;1.00;;;;;;5031948;28;20366;-52
2023/02/06 01:53:37;;;;;;;4.17;2.10;;;8.60;1.00;;;;;;5031860;28;20026;-51
2023/02/06 01:56:06;;;;;;;5.07;2.20;;;8.40;1.00;;;;;;5031373;28;20371;-52
2023/02/06 01:58:37;;;;;;;6.90;2.73;;;8.50;1.00;;;;;;5031761;28;20018;-51
2023/02/06 02:01:04;;;;;;;4.87;2.20;;;8.60;1.00;;;;;;5030985;28;20025;-53
2023/02/06 02:03:32;;;;;;;5.43;2.33;;;8.60;1.00;;;;;;5031214;28;20033;-52
2023/02/06 02:06:04;;;;;;;5.00;2.00;;;8.50;1.00;;;;;;5031211;28;20033;-53
2023/02/06 02:08:36;;;;;;;6.60;2.60;;;8.40;1.00;;;;;;5031614;28;20029;-52
2023/02/06 02:11:04;;;;;;;3.50;1.83;;;8.20;1.00;;;;;;5031905;28;20513;-53
2023/02/06 02:13:30;;;;;;;3.37;2.37;;;8.20;1.00;;;;;;5032001;28;20332;-53
2023/02/06 02:16:03;;;;;;;6.07;2.47;;;8.30;1.00;;;;;;5030126;28;20045;-52
2023/02/06 02:18:44;;;;;;;5.13;2.77;;;8.50;1.00;;;;;;5031764;28;20028;-51
2023/02/06 02:21:28;;;;;;;5.33;2.13;;;8.40;1.00;;;;;;5031207;28;20065;-52
2023/02/06 02:24:05;;;;;;;4.10;2.97;;;8.50;1.00;;;;;;5020314;28;20087;-53
2023/02/06 02:26:36;;;;;;;4.53;2.30;;;8.40;1.00;;;;;;5030073;28;20037;-54
2023/02/06 02:29:26;;;;;;;5.83;2.40;;;8.30;1.00;;;;;;5032826;28;20102;-53
2023/02/06 02:32:24;;;;;;;3.53;2.30;;;8.40;1.00;;;;;;5034035;28;20028;-53
2023/02/06 02:34:56;;;;;;;6.67;2.27;;;8.30;1.00;;;;;;5015513;28;20371;-52
2023/02/06 02:37:27;;;;;;;4.87;1.97;;;8.30;1.00;;;;;;5034477;28;20023;-53
2023/02/06 02:40:02;;;;;;;7.37;2.50;;;8.20;1.00;;;;;;5034338;28;20034;-51
2023/02/06 02:42:44;;;;;;;5.53;2.37;;;8.20;1.00;;;;;;5034625;28;20025;-52
2023/02/06 02:45:19;;;;;;;6.53;2.63;;;8.30;1.00;;;;;;5028392;28;20036;-51
2023/02/06 02:48:23;;;;;;;6.25;2.50;;;8.30;1.00;;;;;;5022045;28;20025;-49
2023/02/06 02:50:51;;;;;;;4.90;2.03;;;8.30;1.00;;;;;;5012755;28;20190;-51
2023/02/06 02:53:18;;;;;;;3.60;2.00;;;8.40;1.00;;;;;;5025805;28;20034;-54
2023/02/06 02:55:44;;;;;;;5.43;1.77;;;8.20;1.00;;;;;;5034764;28;20112;-52
2023/02/06 02:58:13;;;;;;;6.53;2.10;;;8.30;1.00;;;;;;5035674;28;20054;-50
2023/02/06 03:00:44;;;;;;;4.70;2.23;;;8.20;1.00;;;;;;5034086;28;20037;-52
2023/02/06 03:03:13;;;;;;;4.50;2.20;;;8.30;1.00;;;;;;5034772;28;20053;-50
2023/02/06 03:06:17;;;;;;;4.70;2.10;;;8.30;1.00;;;;;;5034391;28;20483;-51
2023/02/06 03:09:20;;;;;;;3.50;2.23;;;8.30;1.00;;;;;;5033576;28;20120;-52
2023/02/06 03:12:00;;;;;;;5.80;2.47;;;8.30;1.00;;;;;;5017455;28;20038;-52
2023/02/06 03:14:32;;;;;;;4.23;2.03;;;8.30;1.00;;;;;;5020426;28;20057;-51
2023/02/06 03:17:08;;;;;;;10.00;3.20;;;8.30;1.00;;;;;;5034187;28;20486;-50
2023/02/06 03:19:41;;;;;;;3.67;2.13;;;8.20;1.00;;;;;;5034526;28;20018;-49
2023/02/06 03:22:06;;;;;;;4.73;2.33;;;8.20;1.00;;;;;;5034410;28;20075;-49
2023/02/06 03:24:37;;;;;;;5.77;2.33;;;8.20;1.00;;;;;;5034706;28;20563;-53
2023/02/06 03:27:09;;;;;;;3.50;2.47;;;8.20;1.00;;;;;;5033868;28;20490;-52
2023/02/06 03:29:36;;;;;;;5.93;3.03;;;8.30;1.00;;;;;;5030557;28;20057;-51
2023/02/06 03:32:26;;;;;;;5.17;2.70;;;8.30;1.00;;;;;;5033824;28;20467;-47
2023/02/06 03:35:00;;;;;;;4.20;2.67;;;8.20;1.00;;;;;;5028209;28;20060;-47
2023/02/06 03:37:27;;;;;;;4.20;2.45;;;8.20;1.00;;;;;;5021672;28;20581;-49
2023/02/06 03:39:53;;;;;;;5.13;2.33;;;8.30;1.00;;;;;;5033583;28;20057;-48
2023/02/06 03:42:20;;;;;;;5.37;2.47;;;8.20;1.00;;;;;;5033872;28;20104;-48
2023/02/06 03:44:53;;;;;;;4.13;2.20;;;8.40;1.00;;;;;;5034195;28;20458;-50
2023/02/06 03:47:22;;;;;;;4.57;2.27;;;8.30;1.00;;;;;;5033725;28;20038;-48
2023/02/06 03:49:49;;;;;;;5.57;3.10;;;8.30;1.00;;;;;;5034210;28;20036;-49
2023/02/06 03:52:21;;;;;;;6.73;2.40;;;8.10;1.00;;;;;;5033539;28;20074;-48
2023/02/06 03:54:55;;;;;;;6.47;2.90;;;8.20;1.00;;;;;;5034019;28;20148;-48
2023/02/06 03:57:22;;;;;;;5.28;2.10;;;8.20;1.00;;;;;;5033983;28;20021;-53
2023/02/06 03:59:48;;;;;;;4.70;2.50;;;8.10;1.00;;;;;;5034337;28;20033;-51
2023/02/06 04:02:15;;;;;;;4.47;2.10;;;8.00;1.00;;;;;;5033770;28;20491;-52
2023/02/06 04:04:43;;;;;;;4.77;2.80;;;8.20;1.00;;;;;;5033214;28;20428;-51
2023/02/06 04:07:18;;;;;;;6.70;2.77;;;8.10;1.00;;;;;;5032699;28;20406;-53
2023/02/06 04:09:44;;;;;;;5.10;2.50;;;8.10;1.00;;;;;;5033367;28;20026;-48
2023/02/06 04:12:09;;;;;;;7.27;2.50;;;8.20;1.00;;;;;;5033761;28;20091;-49
2023/02/06 04:14:35;;;;;;;7.23;2.83;;;8.00;1.00;;;;;;5033195;28;20048;-53
2023/02/06 04:17:05;;;;;;;3.10;1.97;;;8.10;1.00;;;;;;5033288;28;20060;-50
2023/02/06 04:19:31;;;;;;;5.23;2.50;;;8.10;1.00;;;;;;5033468;28;20121;-51
2023/02/06 04:21:57;;;;;;;4.03;2.20;;;8.10;1.00;;;;;;5033052;28;20053;-50
2023/02/06 04:24:23;;;;;;;5.97;2.90;;;8.10;1.00;;;;;;5033548;28;20120;-51
2023/02/06 04:26:49;;;;;;;3.13;1.93;;;8.20;1.00;;;;;;5032749;28;20408;-50
2023/02/06 04:29:14;;;;;;;5.83;2.63;;;8.30;1.00;;;;;;5032970;28;20041;-50
2023/02/06 04:31:40;;;;;;;4.73;2.57;;;8.10;1.00;;;;;;5033204;28;20040;-51
2023/02/06 04:34:06;;;;;;;4.57;2.17;;;8.20;1.00;;;;;;5033057;28;20041;-52
2023/02/06 04:36:31;;;;;;;6.67;2.70;;;8.10;1.00;;;;;;5032749;28;20060;-50
2023/02/06 04:38:57;;;;;;;5.00;2.30;;;8.30;1.00;;;;;;5033465;28;20021;-51
2023/02/06 04:41:23;;;;;;;5.43;2.30;;;8.20;1.00;;;;;;5032707;28;20025;-51
2023/02/06 04:43:48;;;;;;;6.27;2.63;;;8.20;1.00;;;;;;5033114;28;20031;-49
2023/02/06 04:46:14;;;;;;;4.30;2.30;;;8.20;1.00;;;;;;5030906;28;20090;-53
2023/02/06 04:48:40;;;;;;;5.37;2.40;;;8.30;1.00;;;;;;5032893;28;20022;-49
2023/02/06 04:51:05;;;;;;;5.43;2.43;;;8.30;1.00;;;;;;5032306;28;20163;-49
2023/02/06 04:53:31;;;;;;;6.03;2.07;;;8.30;1.00;;;;;;5032164;28;20391;-48
2023/02/06 04:56:05;;;;;;;6.37;2.80;;;8.20;1.00;;;;;;5027053;28;20501;-50
2023/02/06 04:58:30;;;;;;;6.00;3.33;;;8.20;1.00;;;;;;5032851;28;20022;-50
2023/02/06 05:00:56;;;;;;;7.00;2.73;;;8.30;1.00;;;;;;5032307;28;20025;-49
2023/02/06 05:03:24;;;;;;;5.83;2.40;;;8.30;1.00;;;;;;5032099;28;20095;-49
2023/02/06 05:05:50;;;;;;;4.47;2.27;;;8.10;1.00;;;;;;5032107;28;20060;-51
2023/02/06 05:08:16;;;;;;;3.97;2.40;;;7.80;1.00;;;;;;5032726;28;20029;-48
2023/02/06 05:10:41;;;;;;;4.30;2.40;;;8.10;1.00;;;;;;5032218;28;20336;-48
2023/02/06 05:13:07;;;;;;;6.73;2.43;;;8.20;1.00;;;;;;5032487;28;20056;-49
2023/02/06 05:15:37;;;;;;;5.53;2.60;;;8.20;1.00;;;;;;5032095;28;20075;-49
2023/02/06 05:18:03;;;;;;;5.17;1.90;;;8.20;1.00;;;;;;5032541;28;20029;-48
2023/02/06 05:20:29;;;;;;;6.13;2.43;;;8.30;1.00;;;;;;5031361;28;20022;-48
2023/02/06 05:22:55;;;;;;;5.27;2.50;;;8.30;1.00;;;;;;5032071;28;20037;-49
2023/02/06 05:25:21;;;;;;;5.53;2.67;;;8.30;1.00;;;;;;5031470;28;20107;-47
2023/02/06 05:27:46;;;;;;;4.87;2.13;;;8.30;1.00;;;;;;5030635;28;20036;-50
2023/02/06 05:30:13;;;;;;;3.37;2.00;;;8.30;1.00;;;;;;5035806;28;20040;-49
2023/02/06 05:32:39;;;;;;;4.83;2.53;;;8.40;1.00;;;;;;5024955;28;20021;-47
2023/02/06 05:35:05;;;;;;;4.90;2.27;;;8.30;1.00;;;;;;5038374;28;20108;-48
2023/02/06 05:37:31;;;;;;;7.47;2.93;;;8.40;1.00;;;;;;5045501;28;20095;-49
2023/02/06 05:39:56;;;;;;;6.67;2.03;;;8.20;1.00;;;;;;5032286;28;20035;-48
2023/02/06 05:42:22;;;;;;;6.63;2.67;;;8.30;1.00;;;;;;5031542;28;20021;-48
2023/02/06 05:44:47;;;;;;;2.70;2.30;;;8.30;1.00;;;;;;5035056;28;20360;-48
2023/02/06 05:47:13;;;;;;;4.77;2.07;;;8.30;1.00;;;;;;5032156;28;20129;-48
2023/02/06 05:49:39;;;;;;;7.57;2.10;;;8.20;1.00;;;;;;5031704;28;20390;-48
2023/02/06 05:52:04;;;;;;;5.27;2.10;;;8.30;1.00;;;;;;5032166;28;20021;-48
2023/02/06 05:54:30;;;;;;;7.90;2.00;;;8.20;1.00;;;;;;5031595;28;20055;-51
2023/02/06 05:56:58;;;;;;;6.03;2.30;;;8.20;1.00;;;;;;5031810;28;20056;-54
2023/02/06 05:59:24;;;;;;;6.10;2.17;;;8.30;1.00;;;;;;5031886;28;20026;-50
2023/02/06 06:01:50;;;;;;;3.87;2.17;;;8.30;1.00;;;;;;5031174;28;20131;-50
2023/02/06 06:04:16;;;;;;;6.23;1.93;;;8.30;1.00;;;;;;5031111;28;20060;-48
2023/02/06 06:06:41;;;;;;;5.97;2.23;;;8.30;1.00;;;;;;5031505;28;20042;-50
2023/02/06 06:09:07;;;;;;;5.27;2.17;;;8.20;1.00;;;;;;5031877;28;20029;-49
2023/02/06 06:11:32;;;;;;;3.97;1.63;;;8.20;1.00;;;;;;5031302;28;20030;-48
2023/02/06 06:13:58;;;;;;;6.70;2.17;;;8.20;1.00;;;;;;5031775;28;20104;-51
2023/02/06 06:16:24;;;;;;;4.53;1.70;;;8.20;1.00;;;;;;5029925;28;20033;-50
2023/02/06 06:18:50;;;;;;;7.80;2.40;;;8.30;1.00;;;;;;5031497;28;20080;-48
2023/02/06 06:21:16;;;;;;;5.60;2.33;;;8.30;1.00;;;;;;5031210;28;20598;-48
2023/02/06 06:23:41;;;;;;;11.00;2.27;;;8.20;1.00;;;;;;5031689;28;20041;-48
2023/02/06 06:26:07;;;;;;;6.10;1.90;;;8.30;1.00;;;;;;5027671;28;20104;-50
2023/02/06 06:28:34;;;;;;;3.67;2.00;;;8.10;1.00;;;;;;5031842;28;20460;-49
2023/02/06 06:31:06;;;;;;;5.93;2.30;;;8.20;1.00;;;;;;5031122;28;20371;-48
2023/02/06 06:33:32;;;;;;;7.60;2.30;;;8.20;1.00;;;;;;5031373;28;20475;-48
2023/02/06 06:35:58;;;;;;;4.57;2.00;;;8.10;1.00;;;;;;5030767;28;20033;-50
2023/02/06 06:38:24;;;;;;;4.17;2.60;;;8.10;1.00;;;;;;5031291;28;20037;-48
2023/02/06 06:40:49;;;;;;;3.20;1.80;;;8.20;1.00;;;;;;5031188;28;20096;-49
2023/02/06 06:43:15;;;;;;;4.67;2.23;;;8.20;1.00;;;;;;5030211;28;20442;-52
2023/02/06 06:45:41;;;;;;;7.00;2.53;;;8.20;1.00;;;;;;5030986;28;20037;-52
2023/02/06 06:48:06;;;;;;;4.97;2.33;;;8.20;1.00;;;;;;5031296;28;20025;-48
2023/02/06 06:50:32;;;;;;;7.20;2.30;;;8.10;1.00;;;;;;5031302;28;20068;-48
2023/02/06 06:52:57;;;;;;;5.23;2.30;;;8.20;1.00;;;;;;5031222;28;20031;-50
2023/02/06 06:55:23;;;;;;;5.03;2.30;;;8.20;1.00;;;;;;5029757;28;20018;-53
2023/02/06 06:57:49;;;;;;;6.17;2.10;;;8.20;1.00;;;;;;5031221;28;20096;-48
2023/02/06 07:00:15;;;;;;;4.93;2.37;;;8.20;1.00;;;;;;5030660;28;20038;-47
2023/02/06 07:02:41;;;;;;;4.60;1.97;;;8.30;1.00;;;;;;5031232;28;20048;-48
2023/02/06 07:05:07;;;;;;;3.40;1.80;;;8.20;1.00;;;;;;5029511;28;20045;-49
2023/02/06 07:07:33;;;;;;;4.97;2.63;;;8.10;1.00;;;;;;5032079;28;20055;-53
2023/02/06 07:09:59;;;;;;;5.57;2.10;;;8.20;1.00;;;;;;5030922;28;20021;-48
2023/02/06 07:12:26;;;;;;;7.07;2.27;;;8.20;1.00;;;;;;5031462;28;20498;-49
2023/02/06 07:14:52;;;;;;;5.90;2.33;;;8.20;1.00;;;;;;5030881;28;20103;-50
2023/02/06 07:17:17;;;;;;;6.77;2.57;;;8.10;1.00;;;;;;5034770;28;20033;-51
2023/02/06 07:19:48;;;;;;;4.83;2.40;;;8.20;1.00;;;;;;5034747;28;20025;-48
2023/02/06 07:22:14;;;;;;;4.13;2.20;;;8.30;1.00;;;;;;5034373;28;20111;-50
2023/02/06 07:24:40;;;;;;;9.47;2.70;;;8.40;1.00;;;;;;5032961;28;20049;-48
2023/02/06 07:27:06;;;;;;;4.97;2.30;;;8.30;1.00;;;;;;5034380;28;20083;-55
2023/02/06 07:29:32;;;;;;;6.93;2.57;;;8.40;1.00;;;;;;5034475;28;20471;-49
2023/02/06 07:31:58;;;;;;;5.90;2.50;;;8.40;1.00;;;;;;5034535;28;20049;-50
2023/02/06 07:34:24;;;;;;;4.57;2.10;;;8.50;1.00;;;;;;5034027;28;20029;-51
2023/02/06 07:36:50;;;;;;;9.93;3.37;;;8.50;1.00;;;;;;5033524;28;20037;-48
2023/02/06 07:39:15;;;;;;;4.30;2.40;;;8.40;1.00;;;;;;5034313;28;20029;-50
2023/02/06 07:41:41;;;;;;;5.37;3.53;;;8.50;1.00;;;;;;5034147;28;20216;-51
2023/02/06 07:44:09;;;;;;;4.93;2.10;;;8.40;1.00;;;;;;5028742;28;20105;-50
2023/02/06 07:46:35;;;;;;;4.90;2.20;;;8.50;1.00;;;;;;5033784;28;20151;-49
2023/02/06 07:49:00;;;;;;;8.23;2.53;;;8.60;1.00;;;;;;5034518;28;20411;-50
2023/02/06 07:51:26;;;;;;;5.80;2.47;;;8.40;1.00;;;;;;5033742;28;20087;-53
2023/02/06 07:53:52;;;;;;;7.87;2.80;;;8.30;1.00;;;;;;5034159;28;20029;-49
2023/02/06 07:56:19;;;;;;;7.07;2.83;;;8.40;1.00;;;;;;5033685;28;20041;-49
2023/02/06 07:58:49;;;;;;;6.50;2.80;;;8.40;1.00;;;;;;5034129;28;20053;-48
2023/02/06 08:01:14;;;;;;;7.53;2.60;;;8.50;1.00;;;;;;5033715;28;20029;-48
2023/02/06 08:03:40;;;;;;;6.90;2.57;;;8.40;1.00;;;;;;5033950;28;20101;-49
2023/02/06 08:06:11;;;;;;;8.87;2.77;;;8.60;1.00;;;;;;5033260;28;20039;-49
2023/02/06 08:08:37;;;;;;;7.03;2.93;;;8.60;1.00;;;;;;5032166;28;20095;-48
2023/02/06 08:11:07;;;;;;;6.43;2.70;;;8.60;1.00;;;;;;5033915;28;20455;-49
2023/02/06 08:13:34;;;;;;;6.37;3.07;;;8.50;1.00;;;;;;5032076;28;20461;-49
2023/02/06 08:16:04;;;;;;;7.37;2.50;;;8.50;1.00;;;;;;5033757;28;20021;-50
2023/02/06 08:18:30;;;;;;;8.10;2.57;;;8.60;1.00;;;;;;5033382;28;20029;-48
2023/02/06 08:21:08;;;;;;;8.07;3.27;;;8.40;1.00;;;;;;5032013;28;20032;-51
2023/02/06 08:23:34;;;;;;;11.40;2.90;;;8.50;1.00;;;;;;5033451;28;20025;-49
2023/02/06 08:26:09;;;;;;;5.93;3.13;;;8.60;1.00;;;;;;5033124;28;20044;-52
2023/02/06 08:28:35;;;;;;;;;;;8.70;1.00;;;;;;5034350;28;20022;-48
2023/02/06 08:31:12;;;;;;;3.83;2.47;;;8.40;1.00;;;;;;5033339;28;19916;-49
2023/02/06 08:33:38;;;;;;;5.03;3.30;;;8.60;1.00;;;;;;5033301;28;20032;-49
2023/02/06 08:36:05;;;;;;;10.13;3.37;;;8.60;1.00;;;;;;5032166;28;20022;-50
2023/02/06 08:38:30;;;;;;;10.50;4.27;;;8.60;1.00;;;;;;5033526;28;20037;-48
2023/02/06 08:40:56;;;;;;;8.67;3.60;;;8.70;1.00;;;;;;5033018;28;20029;-49
2023/02/06 08:43:22;;;;;;;6.90;3.23;;;8.80;1.00;;;;;;5033045;28;20033;-50
2023/02/06 08:45:49;;;;;;;8.43;3.30;;;8.70;1.00;;;;;;5032710;28;20100;-49
2023/02/06 08:48:15;;;;;;;8.17;3.10;;;8.70;1.00;;;;;;5019615;28;20059;-52
2023/02/06 08:50:40;;;;;;;6.43;3.70;;;8.70;1.00;;;;;;5032924;28;20511;-49
2023/02/06 08:53:06;;;;;;;8.90;3.87;;;8.70;1.00;;;;;;5032964;28;20116;-54
2023/02/06 08:55:32;;;;;;;9.57;4.20;;;8.70;1.00;;;;;;5029704;28;20022;-53
2023/02/06 08:57:57;;;;;;;8.03;4.40;;;8.70;1.00;;;;;;5029194;28;20477;-49
2023/02/06 09:00:23;;;;;;;7.47;3.73;;;8.80;1.00;;;;;;5032634;28;20484;-50
2023/02/06 09:02:50;;;;;;;8.17;3.67;;;8.80;1.00;;;;;;5032794;28;20049;-51
2023/02/06 09:05:16;;;;;;;8.97;3.77;;;8.60;1.00;;;;;;5032320;28;20037;-50
2023/02/06 09:07:41;;;;;;;5.17;3.20;;;8.60;1.00;;;;;;5032571;28;20037;-50
2023/02/06 09:10:07;;;;;;;6.03;3.60;;;8.80;1.00;;;;;;5032706;28;20026;-49
2023/02/06 09:12:33;;;;;;;8.67;5.43;;;8.80;1.00;;;;;;5032851;28;20029;-51
2023/02/06 09:14:59;;;;;;;5.33;4.00;;;8.90;1.00;;;;;;5032384;28;20167;-53
2023/02/06 09:17:26;;;;;;;9.47;3.93;;;8.90;1.00;;;;;;5029679;28;20029;-49
2023/02/06 09:19:51;;;;;;;7.43;4.43;;;9.00;1.00;;;;;;5029279;28;20484;-49
2023/02/06 09:22:17;;;;;;;5.47;4.13;;;9.00;1.00;;;;;;5031128;28;20052;-52
2023/02/06 09:24:42;;;;;;;9.50;4.23;;;9.10;1.00;;;;;;5032469;28;20053;-49
2023/02/06 09:27:08;;;;;;;6.10;3.70;;;9.20;1.00;;;;;;5032095;28;20029;-50
2023/02/06 09:29:34;;;;;;;6.43;3.60;;;9.10;1.00;;;;;;5032097;28;20079;-49
2023/02/06 09:32:00;;;;;;;8.40;3.20;;;9.10;1.00;;;;;;5031438;28;20022;-49
2023/02/06 09:34:26;;;;;;;8.87;3.27;;;9.10;1.00;;;;;;5032134;28;20033;-49
2023/02/06 09:36:53;;;;;;;7.17;3.30;;;9.10;1.00;;;;;;5031940;28;20061;-49
2023/02/06 09:39:19;;;;;;;5.53;3.37;;;9.30;1.00;;;;;;5031579;28;20108;-49
2023/02/06 09:41:49;;;;;;;6.97;3.30;;;9.10;1.00;;;;;;5031401;28;20021;-50
2023/02/06 09:44:17;;;;;;;7.47;3.70;;;9.30;1.00;;;;;;5032464;28;20059;-49
2023/02/06 09:46:54;;;;;;;6.10;3.53;;;9.30;1.00;;;;;;5031766;28;20140;-48
2023/02/06 09:49:33;;;;;;;6.17;3.40;;;9.10;1.00;;;;;;5031954;28;20497;-48
2023/02/06 09:52:14;;;;;;;6.50;3.57;;;9.20;1.00;;;;;;5031648;28;20446;-50
2023/02/06 09:54:59;;;;;;;7.60;2.67;;;9.40;1.00;;;;;;5031874;28;20022;-47
2023/02/06 09:57:58;;;;;;;6.28;3.50;;;9.40;1.00;;;;;;5030430;28;20395;-49
2023/02/06 10:00:44;;;;;;;5.33;3.33;;;9.50;1.00;;;;;;5024601;28;20029;-48
2023/02/06 10:03:25;;;;;;;3.97;3.20;;;9.40;1.00;;;;;;5031550;28;20167;-47
2023/02/06 10:06:41;;;;;;;8.73;3.53;;;9.50;1.00;;;;;;5029624;28;20107;-50
2023/02/06 10:09:15;;;;;;;5.50;3.33;;;9.50;1.00;;;;;;5012856;28;20128;-47
2023/02/06 10:11:53;;;;;;;4.47;2.93;;;9.50;1.00;;;;;;5031669;28;20351;-48
2023/02/06 10:14:23;;;;;;;7.27;3.27;;;9.40;1.00;;;;;;5030476;28;20032;-49
2023/02/06 10:17:00;;;;;;;6.47;3.07;;;9.50;1.00;;;;;;5028578;28;20160;-50
2023/02/06 10:19:45;;;;;;;7.07;2.57;;;9.60;1.00;;;;;;5031419;28;20463;-52
2023/02/06 10:22:43;;;;;;;5.82;3.40;;;9.70;1.00;;;;;;5031700;28;20025;-49
2023/02/06 10:25:29;;;;;;;3.77;3.40;;;9.90;1.00;;;;;;5029547;28;20034;-47
2023/02/06 10:28:05;;;;;;;;;;;10.00;1.00;;;;;;5031720;28;20048;-49
2023/02/06 10:30:55;;;;;;;6.93;3.60;;;10.00;1.00;;;;;;5031204;28;20358;-49
2023/02/06 10:33:47;;;;;;;8.60;3.60;;;9.90;1.00;;;;;;5029642;28;20029;-52
2023/02/06 10:36:24;;;;;;;9.87;4.93;;;9.90;1.00;;;;;;5021165;28;20029;-53
2023/02/06 10:39:11;;;;;;;8.03;3.87;;;10.10;1.00;;;;;;5031889;28;20151;-53
2023/02/06 10:41:57;;;;;;;7.70;3.50;;;10.20;1.00;;;;;;5030799;28;20041;-47
2023/02/06 10:44:41;;;;;;;7.20;3.63;;;10.20;1.00;;;;;;5028105;28;20040;-48
2023/02/06 10:47:30;;;;;;;8.60;3.60;;;10.30;1.00;;;;;;5030781;28;20037;-47
2023/02/06 10:50:13;;;;;;;4.82;3.13;;;10.20;1.00;;;;;;5026940;28;20483;-49
2023/02/06 10:52:39;;;;;;;6.70;3.05;;;10.30;1.00;;;;;;5033743;28;20156;-48
2023/02/06 10:55:19;;;;;;;6.03;3.33;;;10.30;1.00;;;;;;5034142;28;20095;-49
2023/02/06 10:57:46;;;;;;;5.03;2.90;;;10.20;1.00;;;;;;5035276;28;20056;-49
2023/02/06 11:00:24;;;;;;;6.77;2.97;;;10.20;1.00;;;;;;5034843;28;20053;-49
2023/02/06 11:02:56;;;;;;;4.33;3.17;;;10.20;1.00;;;;;;5034699;28;20045;-48
2023/02/06 11:05:25;;;;;;;5.87;2.60;;;10.60;1.00;;;;;;5033353;28;20071;-51
2023/02/06 11:08:06;;;;;;;5.03;3.00;;;10.60;1.00;;;;;;5034523;28;20038;-49
2023/02/06 11:10:31;;;;;;;3.87;2.57;;;10.40;1.00;;;;;;5034663;28;20037;-48
2023/02/06 11:13:03;;;;;;;7.20;3.13;;;10.40;1.00;;;;;;5034826;28;20037;-48
2023/02/06 11:15:37;;;;;;;4.10;3.25;;;10.40;1.00;;;;;;5021324;28;20071;-48
2023/02/06 11:18:06;;;;;;;3.20;2.65;;;10.60;1.00;;;;;;5032982;28;20021;-51
2023/02/06 11:20:34;;;;;;;4.28;2.80;;;10.50;1.00;;;;;;5034559;28;20029;-49
2023/02/06 11:23:20;;;;;;;4.87;3.13;;;10.70;1.00;;;;;;5034310;28;20034;-48
2023/02/06 11:26:11;;;;;;;3.60;3.17;;;10.70;1.00;;;;;;5034962;28;20410;-49
2023/02/06 11:28:57;;;;;;;5.18;2.97;;;10.70;1.00;;;;;;5034386;28;20041;-50
2023/02/06 11:31:43;;;;;;;7.57;3.95;;;10.60;1.00;;;;;;5034342;28;20041;-52
2023/02/06 11:34:32;;;;;;;4.63;3.28;;;10.60;1.00;;;;;;5020716;28;20387;-52
2023/02/06 11:37:01;;;;;;;6.30;4.20;;;10.70;1.00;;;;;;5034183;28;20156;-48
2023/02/06 11:39:38;;;;;;;8.18;4.43;;;10.80;1.00;;;;;;5033687;28;20158;-49
2023/02/06 11:42:27;;;;;;;4.97;4.03;;;10.70;1.00;;;;;;5034171;28;20108;-53
2023/02/06 11:44:52;;;;;;;4.43;3.65;;;10.70;1.00;;;;;;5021302;28;20116;-53
2023/02/06 11:47:18;;;;;;;5.43;4.45;;;10.70;1.00;;;;;;5034069;28;20064;-52
2023/02/06 11:49:43;;;;;;;6.70;3.43;;;10.70;1.00;;;;;;5034199;28;20159;-53
2023/02/06 11:52:31;;;;;;;5.85;3.17;;;10.50;1.00;;;;;;5034159;28;20095;-52
2023/02/06 11:55:01;;;;;;;5.68;3.20;;;10.40;1.00;;;;;;5034056;28;20021;-51
2023/02/06 11:57:33;;;;;;;5.00;3.63;;;10.50;1.00;;;;;;5032682;28;20435;-53
2023/02/06 12:00:18;;;;;;;10.68;5.10;;;10.40;1.00;;;;;;5034005;28;20021;-49
2023/02/06 12:02:50;;;;;;;6.80;4.50;;;10.50;1.00;;;;;;5033074;28;20463;-54
2023/02/06 12:05:18;;;;;;;5.67;3.83;;;10.30;1.00;;;;;;5020255;28;20030;-51
2023/02/06 12:07:59;;;;;;;5.07;3.63;;;10.20;1.00;;;;;;5034029;28;20041;-53
2023/02/06 12:10:26;;;;;;;4.87;3.50;;;10.00;1.00;;;;;;5020317;28;20467;-49
2023/02/06 12:13:17;;;;;;;4.03;2.90;;;10.10;1.00;;;;;;5033532;28;20025;-52
2023/02/06 12:15:51;;;;;;;7.57;3.67;;;10.10;1.00;;;;;;5018872;28;20049;-52
2023/02/06 12:18:39;;;;;;;7.50;4.20;;;10.00;1.00;;;;;;5033034;28;20116;-52
2023/02/06 12:21:12;;;;;;;5.80;3.70;;;10.20;1.00;;;;;;5033912;28;20036;-52
2023/02/06 12:23:51;;;;;;;5.43;3.93;;;10.10;1.00;;;;;;5033065;28;20080;-51
2023/02/06 12:26:20;;;;;;;7.37;4.80;;;9.90;1.00;;;;;;5033030;28;20044;-49
2023/02/06 12:28:56;;;;;;;4.37;3.87;;;10.10;1.00;;;;;;5033317;28;20114;-50
2023/02/06 12:31:24;;;;;;;4.40;3.70;;;10.20;1.00;;;;;;5032809;28;20026;-52
2023/02/06 12:34:09;;;;;;;12.93;6.37;;;10.10;1.00;;;;;;5032318;28;20164;-51
2023/02/06 12:36:38;;;;;;;;;;;10.10;1.00;;;;;;5026280;28;20112;-50
2023/02/06 12:39:15;;;;;;;4.83;4.33;;;10.10;1.00;;;;;;5032402;28;20359;-50
2023/02/06 12:42:04;;;;;;;5.17;4.43;;;10.20;1.00;;;;;;5032445;28;20108;-53
2023/02/06 12:44:42;;;;;;;5.83;3.87;;;10.30;1.00;;;;;;5028028;28;20029;-50
2023/02/06 12:47:36;;;;;;;6.23;3.67;;;10.50;1.00;;;;;;5025346;28;20470;-50
2023/02/06 12:50:05;;;;;;;6.70;3.78;;;10.50;1.00;;;;;;5020133;28;20018;-48
2023/02/06 12:52:44;;;;;;;5.80;3.60;;;10.50;1.00;;;;;;5032637;28;20045;-51
2023/02/06 12:55:31;;;;;;;7.55;3.95;;;10.40;1.00;;;;;;5020114;28;20052;-48
2023/02/06 12:57:57;;;;;;;5.38;3.72;;;10.50;1.00;;;;;;5029438;28;20483;-48
2023/02/06 13:01:09;;;;;;;7.80;4.13;;;10.40;1.00;;;;;;5032847;28;20333;-48
2023/02/06 13:03:56;;;;;;;5.07;3.73;;;10.40;1.00;;;;;;5019086;28;20072;-54
2023/02/06 13:06:28;;;;;;;3.70;3.40;;;10.60;1.00;;;;;;5032867;28;20386;-49
2023/02/06 13:08:58;;;;;;;5.20;3.40;;;10.60;1.00;;;;;;5031420;28;20045;-53
2023/02/06 13:11:31;;;;;;;5.95;3.80;;;10.60;1.00;;;;;;5032644;28;20059;-53
2023/02/06 13:14:24;;;;;;;4.07;3.55;;;10.40;1.00;;;;;;5031766;28;20042;-49
2023/02/06 13:17:10;;;;;;;7.03;4.37;;;10.50;1.00;;;;;;5032636;28;20155;-51
2023/02/06 13:19:50;;;;;;;5.37;3.90;;;10.60;1.00;;;;;;5033090;28;20017;-51
2023/02/06 13:22:17;;;;;;;4.33;3.80;;;10.50;1.00;;;;;;5032466;28;20048;-49
2023/02/06 13:24:47;;;;;;;5.80;3.73;;;10.50;1.00;;;;;;5032938;28;20028;-49